sensor_id;sensor_type;location;lat;lon;timestamp;P1;durP1;ratioP1;P2;durP2;ratioP2
73296;SDS011;61524;50.938;11.396;2022-10-31T00:00:29;6.53;;;3.60;;
73296;SDS011;61524;50.938;11.396;2022-10-31T00:02:55;7.70;;;4.03;;
73296;SDS011;61524;50.938;11.396;2022-10-31T00:05:20;5.25;;;2.95;;
73296;SDS011;61524;50.938;11.396;2022-10-31T00:07:46;7.65;;;3.30;;
73296;SDS011;61524;50.938;11.396;2022-10-31T00:10:11;9.32;;;3.45;;
73296;SDS011;61524;50.938;11.396;2022-10-31T00:12:37;5.55;;;3.15;;
73296;SDS011;61524;50.938;11.396;2022-10-31T00:15:02;5.75;;;3.53;;
73296;SDS011;61524;50.938;11.396;2022-10-31T00:17:28;8.70;;;3.63;;
73296;SDS011;61524;50.938;11.396;2022-10-31T00:19:53;7.38;;;3.63;;
73296;SDS011;61524;50.938;11.396;2022-10-31T00:22:18;8.13;;;3.95;;
73296;SDS011;61524;50.938;11.396;2022-10-31T00:24:44;8.80;;;3.75;;
73296;SDS011;61524;50.938;11.396;2022-10-31T00:27:09;7.05;;;3.75;;
73296;SDS011;61524;50.938;11.396;2022-10-31T00:29:35;5.88;;;2.97;;
73296;SDS011;61524;50.938;11.396;2022-10-31T00:32:00;7.47;;;3.80;;
73296;SDS011;61524;50.938;11.396;2022-10-31T00:34:26;7.05;;;3.65;;
73296;SDS011;61524;50.938;11.396;2022-10-31T00:36:51;8.73;;;3.40;;
73296;SDS011;61524;50.938;11.396;2022-10-31T00:39:16;9.18;;;4.05;;
73296;SDS011;61524;50.938;11.396;2022-10-31T00:41:42;8.82;;;4.03;;
73296;SDS011;61524;50.938;11.396;2022-10-31T00:44:07;5.53;;;3.85;;
73296;SDS011;61524;50.938;11.396;2022-10-31T00:46:33;7.10;;;3.20;;
73296;SDS011;61524;50.938;11.396;2022-10-31T00:48:58;5.95;;;3.42;;
73296;SDS011;61524;50.938;11.396;2022-10-31T00:51:24;7.05;;;3.97;;
73296;SDS011;61524;50.938;11.396;2022-10-31T00:53:49;8.50;;;4.28;;
73296;SDS011;61524;50.938;11.396;2022-10-31T00:56:14;6.85;;;3.03;;
73296;SDS011;61524;50.938;11.396;2022-10-31T00:58:40;8.75;;;3.90;;
73296;SDS011;61524;50.938;11.396;2022-10-31T01:01:05;7.63;;;3.25;;
73296;SDS011;61524;50.938;11.396;2022-10-31T01:03:32;6.82;;;2.85;;
73296;SDS011;61524;50.938;11.396;2022-10-31T01:06:03;6.28;;;3.55;;
73296;SDS011;61524;50.938;11.396;2022-10-31T01:08:33;6.82;;;2.78;;
73296;SDS011;61524;50.938;11.396;2022-10-31T01:13:30;8.02;;;3.70;;
73296;SDS011;61524;50.938;11.396;2022-10-31T01:15:57;7.40;;;3.17;;
73296;SDS011;61524;50.938;11.396;2022-10-31T01:18:23;6.57;;;3.67;;
73296;SDS011;61524;50.938;11.396;2022-10-31T01:20:59;6.03;;;3.03;;
73296;SDS011;61524;50.938;11.396;2022-10-31T01:23:25;5.97;;;3.35;;
73296;SDS011;61524;50.938;11.396;2022-10-31T01:25:58;7.55;;;3.40;;
73296;SDS011;61524;50.938;11.396;2022-10-31T01:28:24;6.65;;;3.75;;
73296;SDS011;61524;50.938;11.396;2022-10-31T01:30:50;5.25;;;3.00;;
73296;SDS011;61524;50.938;11.396;2022-10-31T01:33:15;7.55;;;3.50;;
73296;SDS011;61524;50.938;11.396;2022-10-31T01:35:41;7.47;;;4.03;;
73296;SDS011;61524;50.938;11.396;2022-10-31T01:38:06;7.65;;;3.00;;
73296;SDS011;61524;50.938;11.396;2022-10-31T01:40:31;9.23;;;3.28;;
73296;SDS011;61524;50.938;11.396;2022-10-31T01:42:57;6.28;;;2.92;;
73296;SDS011;61524;50.938;11.396;2022-10-31T01:45:22;8.57;;;3.83;;
73296;SDS011;61524;50.938;11.396;2022-10-31T01:47:48;6.13;;;2.78;;
73296;SDS011;61524;50.938;11.396;2022-10-31T01:50:26;7.20;;;3.65;;
73296;SDS011;61524;50.938;11.396;2022-10-31T01:52:57;7.25;;;3.38;;
73296;SDS011;61524;50.938;11.396;2022-10-31T01:55:25;5.90;;;3.30;;
73296;SDS011;61524;50.938;11.396;2022-10-31T01:57:55;7.35;;;2.97;;
73296;SDS011;61524;50.938;11.396;2022-10-31T02:00:24;9.00;;;3.38;;
73296;SDS011;61524;50.938;11.396;2022-10-31T02:02:50;9.27;;;3.25;;
73296;SDS011;61524;50.938;11.396;2022-10-31T02:05:20;6.25;;;3.70;;
73296;SDS011;61524;50.938;11.396;2022-10-31T02:07:52;7.43;;;3.35;;
73296;SDS011;61524;50.938;11.396;2022-10-31T02:10:30;5.97;;;3.40;;
73296;SDS011;61524;50.938;11.396;2022-10-31T02:12:58;7.05;;;4.00;;
73296;SDS011;61524;50.938;11.396;2022-10-31T02:15:26;5.82;;;2.67;;
73296;SDS011;61524;50.938;11.396;2022-10-31T02:17:53;8.25;;;4.28;;
73296;SDS011;61524;50.938;11.396;2022-10-31T02:20:25;6.80;;;2.88;;
73296;SDS011;61524;50.938;11.396;2022-10-31T02:33:57;5.80;;;3.30;;
73296;SDS011;61524;50.938;11.396;2022-10-31T02:39:12;9.55;;;3.38;;
73296;SDS011;61524;50.938;11.396;2022-10-31T02:44:43;8.45;;;3.45;;
73296;SDS011;61524;50.938;11.396;2022-10-31T02:47:16;7.80;;;3.50;;
73296;SDS011;61524;50.938;11.396;2022-10-31T02:52:19;6.55;;;2.95;;
73296;SDS011;61524;50.938;11.396;2022-10-31T02:54:47;5.80;;;2.72;;
73296;SDS011;61524;50.938;11.396;2022-10-31T02:57:13;5.32;;;2.70;;
73296;SDS011;61524;50.938;11.396;2022-10-31T02:59:46;6.25;;;3.58;;
73296;SDS011;61524;50.938;11.396;2022-10-31T03:02:19;5.47;;;2.88;;
73296;SDS011;61524;50.938;11.396;2022-10-31T03:07:43;8.50;;;2.97;;
73296;SDS011;61524;50.938;11.396;2022-10-31T03:15:34;6.38;;;2.85;;
73296;SDS011;61524;50.938;11.396;2022-10-31T03:18:06;5.90;;;2.90;;
73296;SDS011;61524;50.938;11.396;2022-10-31T03:20:40;5.68;;;2.90;;
73296;SDS011;61524;50.938;11.396;2022-10-31T03:23:12;7.22;;;3.40;;
73296;SDS011;61524;50.938;11.396;2022-10-31T03:25:41;5.38;;;2.70;;
73296;SDS011;61524;50.938;11.396;2022-10-31T03:28:08;5.03;;;2.65;;
73296;SDS011;61524;50.938;11.396;2022-10-31T03:30:38;5.22;;;3.60;;
73296;SDS011;61524;50.938;11.396;2022-10-31T03:33:09;5.75;;;2.70;;
73296;SDS011;61524;50.938;11.396;2022-10-31T03:35:39;7.60;;;3.08;;
73296;SDS011;61524;50.938;11.396;2022-10-31T03:38:08;5.35;;;3.15;;
73296;SDS011;61524;50.938;11.396;2022-10-31T03:40:34;9.38;;;3.03;;
73296;SDS011;61524;50.938;11.396;2022-10-31T03:43:07;9.27;;;2.88;;
73296;SDS011;61524;50.938;11.396;2022-10-31T03:45:43;10.05;;;2.60;;
73296;SDS011;61524;50.938;11.396;2022-10-31T03:48:10;6.45;;;3.10;;
73296;SDS011;61524;50.938;11.396;2022-10-31T03:53:24;6.05;;;2.85;;
73296;SDS011;61524;50.938;11.396;2022-10-31T03:55:57;8.63;;;2.75;;
73296;SDS011;61524;50.938;11.396;2022-10-31T03:58:28;6.50;;;3.03;;
73296;SDS011;61524;50.938;11.396;2022-10-31T04:00:59;5.78;;;3.45;;
73296;SDS011;61524;50.938;11.396;2022-10-31T04:03:28;6.70;;;2.83;;
73296;SDS011;61524;50.938;11.396;2022-10-31T04:05:59;8.40;;;3.40;;
73296;SDS011;61524;50.938;11.396;2022-10-31T04:08:30;5.50;;;2.53;;
73296;SDS011;61524;50.938;11.396;2022-10-31T04:10:59;5.78;;;3.20;;
73296;SDS011;61524;50.938;11.396;2022-10-31T04:13:28;6.82;;;3.22;;
73296;SDS011;61524;50.938;11.396;2022-10-31T04:15:57;5.93;;;2.90;;
73296;SDS011;61524;50.938;11.396;2022-10-31T04:18:23;4.90;;;2.22;;
73296;SDS011;61524;50.938;11.396;2022-10-31T04:20:49;6.57;;;3.03;;
73296;SDS011;61524;50.938;11.396;2022-10-31T04:23:24;8.32;;;3.05;;
73296;SDS011;61524;50.938;11.396;2022-10-31T04:25:51;7.13;;;3.22;;
73296;SDS011;61524;50.938;11.396;2022-10-31T04:28:17;6.38;;;2.85;;
73296;SDS011;61524;50.938;11.396;2022-10-31T04:30:43;6.93;;;2.85;;
73296;SDS011;61524;50.938;11.396;2022-10-31T04:33:09;7.22;;;4.22;;
73296;SDS011;61524;50.938;11.396;2022-10-31T04:35:34;6.72;;;3.65;;
73296;SDS011;61524;50.938;11.396;2022-10-31T04:38:00;5.63;;;3.30;;
73296;SDS011;61524;50.938;11.396;2022-10-31T04:40:25;5.57;;;3.17;;
73296;SDS011;61524;50.938;11.396;2022-10-31T04:42:51;10.65;;;3.15;;
73296;SDS011;61524;50.938;11.396;2022-10-31T04:45:16;5.30;;;2.70;;
73296;SDS011;61524;50.938;11.396;2022-10-31T04:47:42;6.55;;;3.05;;
73296;SDS011;61524;50.938;11.396;2022-10-31T04:50:07;6.40;;;3.35;;
73296;SDS011;61524;50.938;11.396;2022-10-31T04:52:38;9.02;;;2.97;;
73296;SDS011;61524;50.938;11.396;2022-10-31T04:55:04;9.70;;;3.83;;
73296;SDS011;61524;50.938;11.396;2022-10-31T04:57:30;5.70;;;3.25;;
73296;SDS011;61524;50.938;11.396;2022-10-31T04:59:55;9.80;;;2.85;;
73296;SDS011;61524;50.938;11.396;2022-10-31T05:02:21;7.63;;;2.97;;
73296;SDS011;61524;50.938;11.396;2022-10-31T05:04:46;4.85;;;2.65;;
73296;SDS011;61524;50.938;11.396;2022-10-31T05:07:12;6.00;;;2.60;;
73296;SDS011;61524;50.938;11.396;2022-10-31T05:09:37;6.43;;;2.97;;
73296;SDS011;61524;50.938;11.396;2022-10-31T05:12:03;7.32;;;3.58;;
73296;SDS011;61524;50.938;11.396;2022-10-31T05:14:28;5.60;;;2.78;;
73296;SDS011;61524;50.938;11.396;2022-10-31T05:16:54;5.90;;;2.13;;
73296;SDS011;61524;50.938;11.396;2022-10-31T05:19:19;8.80;;;3.10;;
73296;SDS011;61524;50.938;11.396;2022-10-31T05:21:45;7.45;;;2.35;;
73296;SDS011;61524;50.938;11.396;2022-10-31T05:24:10;6.85;;;2.72;;
73296;SDS011;61524;50.938;11.396;2022-10-31T05:26:35;6.10;;;2.78;;
73296;SDS011;61524;50.938;11.396;2022-10-31T05:29:01;7.15;;;3.25;;
73296;SDS011;61524;50.938;11.396;2022-10-31T05:31:26;6.97;;;3.63;;
73296;SDS011;61524;50.938;11.396;2022-10-31T05:33:52;6.20;;;3.25;;
73296;SDS011;61524;50.938;11.396;2022-10-31T05:36:17;5.47;;;2.90;;
73296;SDS011;61524;50.938;11.396;2022-10-31T05:38:43;6.90;;;2.80;;
73296;SDS011;61524;50.938;11.396;2022-10-31T05:41:08;7.25;;;3.05;;
73296;SDS011;61524;50.938;11.396;2022-10-31T05:43:34;8.20;;;3.47;;
73296;SDS011;61524;50.938;11.396;2022-10-31T05:46:00;7.53;;;3.45;;
73296;SDS011;61524;50.938;11.396;2022-10-31T05:48:25;5.78;;;3.05;;
73296;SDS011;61524;50.938;11.396;2022-10-31T05:50:51;5.50;;;3.10;;
73296;SDS011;61524;50.938;11.396;2022-10-31T05:53:17;5.57;;;3.03;;
73296;SDS011;61524;50.938;11.396;2022-10-31T05:55:42;5.30;;;2.20;;
73296;SDS011;61524;50.938;11.396;2022-10-31T05:58:08;7.13;;;3.17;;
73296;SDS011;61524;50.938;11.396;2022-10-31T06:00:34;16.15;;;3.35;;
73296;SDS011;61524;50.938;11.396;2022-10-31T06:03:00;6.78;;;2.95;;
73296;SDS011;61524;50.938;11.396;2022-10-31T06:07:52;5.30;;;2.92;;
73296;SDS011;61524;50.938;11.396;2022-10-31T06:10:18;7.72;;;3.13;;
73296;SDS011;61524;50.938;11.396;2022-10-31T06:12:45;7.47;;;3.53;;
73296;SDS011;61524;50.938;11.396;2022-10-31T06:15:11;6.65;;;3.28;;
73296;SDS011;61524;50.938;11.396;2022-10-31T06:17:37;8.55;;;3.25;;
73296;SDS011;61524;50.938;11.396;2022-10-31T06:20:03;7.05;;;3.38;;
73296;SDS011;61524;50.938;11.396;2022-10-31T06:22:29;6.65;;;3.17;;
73296;SDS011;61524;50.938;11.396;2022-10-31T06:24:54;6.60;;;3.35;;
73296;SDS011;61524;50.938;11.396;2022-10-31T06:27:20;7.15;;;3.13;;
73296;SDS011;61524;50.938;11.396;2022-10-31T06:29:45;5.80;;;3.10;;
73296;SDS011;61524;50.938;11.396;2022-10-31T06:32:11;7.07;;;3.03;;
73296;SDS011;61524;50.938;11.396;2022-10-31T06:34:37;9.75;;;3.35;;
73296;SDS011;61524;50.938;11.396;2022-10-31T06:37:05;6.72;;;3.22;;
73296;SDS011;61524;50.938;11.396;2022-10-31T06:39:32;6.55;;;2.85;;
73296;SDS011;61524;50.938;11.396;2022-10-31T06:41:57;6.65;;;3.17;;
73296;SDS011;61524;50.938;11.396;2022-10-31T06:44:22;4.53;;;2.25;;
73296;SDS011;61524;50.938;11.396;2022-10-31T06:46:48;5.82;;;3.05;;
73296;SDS011;61524;50.938;11.396;2022-10-31T06:49:13;6.60;;;2.90;;
73296;SDS011;61524;50.938;11.396;2022-10-31T06:51:39;8.43;;;3.55;;
73296;SDS011;61524;50.938;11.396;2022-10-31T06:54:04;6.88;;;3.47;;
73296;SDS011;61524;50.938;11.396;2022-10-31T06:56:30;6.40;;;4.05;;
73296;SDS011;61524;50.938;11.396;2022-10-31T06:58:55;6.18;;;2.97;;
73296;SDS011;61524;50.938;11.396;2022-10-31T07:01:20;9.18;;;3.72;;
73296;SDS011;61524;50.938;11.396;2022-10-31T07:03:46;7.90;;;3.10;;
73296;SDS011;61524;50.938;11.396;2022-10-31T07:06:11;8.05;;;3.65;;
73296;SDS011;61524;50.938;11.396;2022-10-31T07:08:37;7.60;;;3.38;;
73296;SDS011;61524;50.938;11.396;2022-10-31T07:11:02;7.40;;;3.50;;
73296;SDS011;61524;50.938;11.396;2022-10-31T07:13:28;8.50;;;3.67;;
73296;SDS011;61524;50.938;11.396;2022-10-31T07:15:54;7.97;;;3.58;;
73296;SDS011;61524;50.938;11.396;2022-10-31T07:18:24;8.43;;;3.75;;
73296;SDS011;61524;50.938;11.396;2022-10-31T07:20:49;7.88;;;3.33;;
73296;SDS011;61524;50.938;11.396;2022-10-31T07:23:15;6.07;;;3.38;;
73296;SDS011;61524;50.938;11.396;2022-10-31T07:25:40;8.93;;;4.07;;
73296;SDS011;61524;50.938;11.396;2022-10-31T07:28:06;6.00;;;3.00;;
73296;SDS011;61524;50.938;11.396;2022-10-31T07:30:32;6.93;;;3.70;;
73296;SDS011;61524;50.938;11.396;2022-10-31T07:32:58;7.38;;;3.58;;
73296;SDS011;61524;50.938;11.396;2022-10-31T07:35:24;9.43;;;4.03;;
73296;SDS011;61524;50.938;11.396;2022-10-31T07:37:53;10.25;;;4.20;;
73296;SDS011;61524;50.938;11.396;2022-10-31T07:40:20;8.77;;;4.40;;
73296;SDS011;61524;50.938;11.396;2022-10-31T07:42:47;8.60;;;4.80;;
73296;SDS011;61524;50.938;11.396;2022-10-31T07:45:15;11.35;;;4.03;;
73296;SDS011;61524;50.938;11.396;2022-10-31T07:47:43;8.77;;;4.10;;
73296;SDS011;61524;50.938;11.396;2022-10-31T07:52:45;7.85;;;4.10;;
73296;SDS011;61524;50.938;11.396;2022-10-31T07:55:11;10.18;;;4.05;;
73296;SDS011;61524;50.938;11.396;2022-10-31T07:57:37;8.82;;;3.63;;
73296;SDS011;61524;50.938;11.396;2022-10-31T08:00:03;8.57;;;4.47;;
73296;SDS011;61524;50.938;11.396;2022-10-31T08:02:33;6.25;;;3.55;;
73296;SDS011;61524;50.938;11.396;2022-10-31T08:04:58;8.18;;;3.95;;
73296;SDS011;61524;50.938;11.396;2022-10-31T08:07:25;8.48;;;3.88;;
73296;SDS011;61524;50.938;11.396;2022-10-31T08:09:51;7.82;;;3.55;;
73296;SDS011;61524;50.938;11.396;2022-10-31T08:12:17;8.32;;;4.35;;
73296;SDS011;61524;50.938;11.396;2022-10-31T08:14:42;9.20;;;3.40;;
73296;SDS011;61524;50.938;11.396;2022-10-31T08:17:09;6.68;;;3.72;;
73296;SDS011;61524;50.938;11.396;2022-10-31T08:19:34;8.35;;;3.97;;
73296;SDS011;61524;50.938;11.396;2022-10-31T08:22:00;8.63;;;4.50;;
73296;SDS011;61524;50.938;11.396;2022-10-31T08:24:25;8.45;;;3.72;;
73296;SDS011;61524;50.938;11.396;2022-10-31T08:26:51;6.07;;;3.72;;
73296;SDS011;61524;50.938;11.396;2022-10-31T08:29:17;9.23;;;4.43;;
73296;SDS011;61524;50.938;11.396;2022-10-31T08:31:42;7.32;;;3.72;;
73296;SDS011;61524;50.938;11.396;2022-10-31T08:34:08;9.88;;;4.93;;
73296;SDS011;61524;50.938;11.396;2022-10-31T08:36:34;8.93;;;4.22;;
73296;SDS011;61524;50.938;11.396;2022-10-31T08:39:00;7.85;;;4.53;;
73296;SDS011;61524;50.938;11.396;2022-10-31T08:41:25;8.68;;;4.07;;
73296;SDS011;61524;50.938;11.396;2022-10-31T08:43:51;10.18;;;4.22;;
73296;SDS011;61524;50.938;11.396;2022-10-31T08:46:16;6.18;;;3.80;;
73296;SDS011;61524;50.938;11.396;2022-10-31T08:48:42;8.98;;;3.40;;
73296;SDS011;61524;50.938;11.396;2022-10-31T08:51:07;8.38;;;4.63;;
73296;SDS011;61524;50.938;11.396;2022-10-31T08:53:34;10.43;;;3.78;;
73296;SDS011;61524;50.938;11.396;2022-10-31T08:55:59;7.82;;;3.70;;
73296;SDS011;61524;50.938;11.396;2022-10-31T08:58:24;7.80;;;3.47;;
73296;SDS011;61524;50.938;11.396;2022-10-31T09:00:51;8.05;;;3.75;;
73296;SDS011;61524;50.938;11.396;2022-10-31T09:03:20;6.47;;;3.60;;
73296;SDS011;61524;50.938;11.396;2022-10-31T09:05:47;11.32;;;4.15;;
73296;SDS011;61524;50.938;11.396;2022-10-31T09:08:12;8.05;;;3.90;;
73296;SDS011;61524;50.938;11.396;2022-10-31T09:10:38;8.48;;;4.50;;
73296;SDS011;61524;50.938;11.396;2022-10-31T09:13:06;11.45;;;4.07;;
73296;SDS011;61524;50.938;11.396;2022-10-31T09:15:33;8.40;;;3.78;;
73296;SDS011;61524;50.938;11.396;2022-10-31T09:18:01;9.70;;;4.03;;
73296;SDS011;61524;50.938;11.396;2022-10-31T09:20:27;7.43;;;4.32;;
73296;SDS011;61524;50.938;11.396;2022-10-31T09:22:56;10.02;;;4.57;;
73296;SDS011;61524;50.938;11.396;2022-10-31T09:25:24;14.55;;;3.97;;
73296;SDS011;61524;50.938;11.396;2022-10-31T09:27:49;9.20;;;4.78;;
73296;SDS011;61524;50.938;11.396;2022-10-31T09:30:15;10.65;;;5.20;;
73296;SDS011;61524;50.938;11.396;2022-10-31T09:32:40;11.45;;;4.50;;
73296;SDS011;61524;50.938;11.396;2022-10-31T09:35:06;9.27;;;5.00;;
73296;SDS011;61524;50.938;11.396;2022-10-31T09:37:31;8.65;;;4.13;;
73296;SDS011;61524;50.938;11.396;2022-10-31T09:39:57;9.30;;;4.30;;
73296;SDS011;61524;50.938;11.396;2022-10-31T09:50:46;9.50;;;3.90;;
73296;SDS011;61524;50.938;11.396;2022-10-31T09:55:45;8.38;;;3.92;;
73296;SDS011;61524;50.938;11.396;2022-10-31T09:58:17;8.65;;;4.03;;
73296;SDS011;61524;50.938;11.396;2022-10-31T10:00:45;8.02;;;3.22;;
73296;SDS011;61524;50.938;11.396;2022-10-31T10:05:57;8.15;;;3.88;;
73296;SDS011;61524;50.938;11.396;2022-10-31T10:08:44;9.25;;;3.28;;
73296;SDS011;61524;50.938;11.396;2022-10-31T10:16:38;8.07;;;3.58;;
73296;SDS011;61524;50.938;11.396;2022-10-31T10:22:03;9.98;;;4.72;;
73296;SDS011;61524;50.938;11.396;2022-10-31T10:32:42;8.98;;;4.55;;
73296;SDS011;61524;50.938;11.396;2022-10-31T10:38:00;7.82;;;3.45;;
73296;SDS011;61524;50.938;11.396;2022-10-31T10:40:35;9.75;;;4.05;;
73296;SDS011;61524;50.938;11.396;2022-10-31T10:45:50;7.55;;;4.20;;
73296;SDS011;61524;50.938;11.396;2022-10-31T10:48:44;10.23;;;4.13;;
73296;SDS011;61524;50.938;11.396;2022-10-31T10:51:18;9.32;;;4.13;;
73296;SDS011;61524;50.938;11.396;2022-10-31T10:53:50;7.95;;;3.95;;
73296;SDS011;61524;50.938;11.396;2022-10-31T10:58:59;9.50;;;4.10;;
73296;SDS011;61524;50.938;11.396;2022-10-31T11:01:25;12.02;;;4.40;;
73296;SDS011;61524;50.938;11.396;2022-10-31T11:03:50;12.45;;;4.55;;
73296;SDS011;61524;50.938;11.396;2022-10-31T11:06:19;12.32;;;5.70;;
73296;SDS011;61524;50.938;11.396;2022-10-31T11:08:50;11.95;;;4.30;;
73296;SDS011;61524;50.938;11.396;2022-10-31T11:13:42;7.38;;;4.65;;
73296;SDS011;61524;50.938;11.396;2022-10-31T11:18:44;10.35;;;4.00;;
73296;SDS011;61524;50.938;11.396;2022-10-31T11:21:45;11.05;;;4.25;;
73296;SDS011;61524;50.938;11.396;2022-10-31T11:29:03;8.27;;;4.07;;
73296;SDS011;61524;50.938;11.396;2022-10-31T11:31:30;9.73;;;5.10;;
73296;SDS011;61524;50.938;11.396;2022-10-31T11:34:00;10.65;;;3.72;;
73296;SDS011;61524;50.938;11.396;2022-10-31T11:36:34;10.52;;;4.28;;
73296;SDS011;61524;50.938;11.396;2022-10-31T11:39:03;9.57;;;4.20;;
73296;SDS011;61524;50.938;11.396;2022-10-31T11:41:35;9.30;;;4.32;;
73296;SDS011;61524;50.938;11.396;2022-10-31T11:46:39;10.98;;;5.35;;
73296;SDS011;61524;50.938;11.396;2022-10-31T11:49:15;13.13;;;4.43;;
73296;SDS011;61524;50.938;11.396;2022-10-31T11:51:51;10.88;;;5.57;;
73296;SDS011;61524;50.938;11.396;2022-10-31T11:54:22;10.32;;;4.28;;
73296;SDS011;61524;50.938;11.396;2022-10-31T11:56:51;9.05;;;4.57;;
73296;SDS011;61524;50.938;11.396;2022-10-31T11:59:38;10.20;;;4.28;;
73296;SDS011;61524;50.938;11.396;2022-10-31T12:02:14;7.90;;;4.20;;
73296;SDS011;61524;50.938;11.396;2022-10-31T12:04:45;8.25;;;3.60;;
73296;SDS011;61524;50.938;11.396;2022-10-31T12:07:14;8.38;;;3.53;;
73296;SDS011;61524;50.938;11.396;2022-10-31T12:09:39;7.70;;;4.88;;
73296;SDS011;61524;50.938;11.396;2022-10-31T12:23:24;6.70;;;3.97;;
73296;SDS011;61524;50.938;11.396;2022-10-31T12:34:43;8.35;;;3.80;;
73296;SDS011;61524;50.938;11.396;2022-10-31T13:05:43;9.10;;;3.50;;
73296;SDS011;61524;50.938;11.396;2022-10-31T13:10:37;7.32;;;3.55;;
73296;SDS011;61524;50.938;11.396;2022-10-31T13:13:51;6.75;;;3.58;;
73296;SDS011;61524;50.938;11.396;2022-10-31T13:15:57;8.93;;;4.65;;
73296;SDS011;61524;50.938;11.396;2022-10-31T13:18:33;8.60;;;4.22;;
73296;SDS011;61524;50.938;11.396;2022-10-31T13:23:34;14.55;;;4.70;;
73296;SDS011;61524;50.938;11.396;2022-10-31T13:26:16;10.80;;;4.53;;
73296;SDS011;61524;50.938;11.396;2022-10-31T13:28:57;9.82;;;4.28;;
73296;SDS011;61524;50.938;11.396;2022-10-31T13:31:30;9.32;;;4.30;;
73296;SDS011;61524;50.938;11.396;2022-10-31T13:33:57;10.60;;;4.32;;
73296;SDS011;61524;50.938;11.396;2022-10-31T13:44:38;8.27;;;4.13;;
73296;SDS011;61524;50.938;11.396;2022-10-31T13:47:04;10.88;;;5.07;;
73296;SDS011;61524;50.938;11.396;2022-10-31T13:49:47;14.38;;;4.50;;
73296;SDS011;61524;50.938;11.396;2022-10-31T13:52:13;8.48;;;4.20;;
73296;SDS011;61524;50.938;11.396;2022-10-31T13:54:43;10.48;;;4.35;;
73296;SDS011;61524;50.938;11.396;2022-10-31T13:59:38;9.43;;;5.07;;
73296;SDS011;61524;50.938;11.396;2022-10-31T14:02:12;12.07;;;4.20;;
73296;SDS011;61524;50.938;11.396;2022-10-31T14:04:45;13.45;;;4.97;;
73296;SDS011;61524;50.938;11.396;2022-10-31T14:07:14;11.07;;;5.28;;
73296;SDS011;61524;50.938;11.396;2022-10-31T14:12:30;13.50;;;5.60;;
73296;SDS011;61524;50.938;11.396;2022-10-31T14:18:18;10.20;;;4.55;;
73296;SDS011;61524;50.938;11.396;2022-10-31T14:20:31;12.95;;;6.22;;
73296;SDS011;61524;50.938;11.396;2022-10-31T14:25:36;17.92;;;8.10;;
73296;SDS011;61524;50.938;11.396;2022-10-31T14:28:05;15.50;;;7.97;;
73296;SDS011;61524;50.938;11.396;2022-10-31T14:30:54;17.80;;;8.30;;
73296;SDS011;61524;50.938;11.396;2022-10-31T14:33:21;18.42;;;8.43;;
73296;SDS011;61524;50.938;11.396;2022-10-31T14:38:23;17.10;;;8.45;;
73296;SDS011;61524;50.938;11.396;2022-10-31T14:41:49;14.93;;;8.20;;
73296;SDS011;61524;50.938;11.396;2022-10-31T14:52:12;17.63;;;10.68;;
73296;SDS011;61524;50.938;11.396;2022-10-31T14:54:42;18.05;;;9.18;;
73296;SDS011;61524;50.938;11.396;2022-10-31T14:57:18;14.48;;;9.00;;
73296;SDS011;61524;50.938;11.396;2022-10-31T14:59:54;17.52;;;8.05;;
73296;SDS011;61524;50.938;11.396;2022-10-31T15:02:24;17.27;;;8.70;;
73296;SDS011;61524;50.938;11.396;2022-10-31T15:04:55;18.67;;;8.85;;
73296;SDS011;61524;50.938;11.396;2022-10-31T15:07:24;13.35;;;8.18;;
73296;SDS011;61524;50.938;11.396;2022-10-31T15:12:31;19.30;;;8.95;;
73296;SDS011;61524;50.938;11.396;2022-10-31T15:15:12;16.25;;;7.55;;
73296;SDS011;61524;50.938;11.396;2022-10-31T15:17:41;12.38;;;7.53;;
73296;SDS011;61524;50.938;11.396;2022-10-31T15:20:11;16.23;;;8.77;;
73296;SDS011;61524;50.938;11.396;2022-10-31T15:22:42;14.85;;;7.72;;
73296;SDS011;61524;50.938;11.396;2022-10-31T15:25:27;18.00;;;8.98;;
73296;SDS011;61524;50.938;11.396;2022-10-31T15:27:55;16.50;;;8.32;;
73296;SDS011;61524;50.938;11.396;2022-10-31T15:30:22;20.33;;;9.23;;
73296;SDS011;61524;50.938;11.396;2022-10-31T15:32:49;17.88;;;8.80;;
73296;SDS011;61524;50.938;11.396;2022-10-31T15:35:19;22.40;;;10.13;;
73296;SDS011;61524;50.938;11.396;2022-10-31T15:37:55;15.32;;;10.25;;
73296;SDS011;61524;50.938;11.396;2022-10-31T15:40:23;14.77;;;9.20;;
73296;SDS011;61524;50.938;11.396;2022-10-31T15:42:55;14.88;;;9.45;;
73296;SDS011;61524;50.938;11.396;2022-10-31T15:45:24;18.55;;;10.73;;
73296;SDS011;61524;50.938;11.396;2022-10-31T15:50:48;15.98;;;7.80;;
73296;SDS011;61524;50.938;11.396;2022-10-31T15:53:25;16.13;;;7.78;;
73296;SDS011;61524;50.938;11.396;2022-10-31T15:56:00;12.23;;;7.68;;
73296;SDS011;61524;50.938;11.396;2022-10-31T15:58:32;14.15;;;7.90;;
73296;SDS011;61524;50.938;11.396;2022-10-31T16:01:05;14.00;;;8.60;;
73296;SDS011;61524;50.938;11.396;2022-10-31T16:03:43;17.48;;;8.60;;
73296;SDS011;61524;50.938;11.396;2022-10-31T16:06:19;21.45;;;13.05;;
73296;SDS011;61524;50.938;11.396;2022-10-31T16:08:46;23.25;;;11.95;;
73296;SDS011;61524;50.938;11.396;2022-10-31T16:11:15;21.90;;;13.05;;
73296;SDS011;61524;50.938;11.396;2022-10-31T16:16:51;28.35;;;16.38;;
73296;SDS011;61524;50.938;11.396;2022-10-31T16:19:20;25.20;;;15.25;;
73296;SDS011;61524;50.938;11.396;2022-10-31T16:21:49;22.85;;;10.77;;
73296;SDS011;61524;50.938;11.396;2022-10-31T16:26:49;13.45;;;7.72;;
73296;SDS011;61524;50.938;11.396;2022-10-31T16:31:52;11.45;;;6.15;;
73296;SDS011;61524;50.938;11.396;2022-10-31T16:34:20;13.00;;;7.88;;
73296;SDS011;61524;50.938;11.396;2022-10-31T16:36:46;11.10;;;6.20;;
73296;SDS011;61524;50.938;11.396;2022-10-31T16:39:13;13.32;;;6.75;;
73296;SDS011;61524;50.938;11.396;2022-10-31T16:41:42;11.38;;;5.32;;
73296;SDS011;61524;50.938;11.396;2022-10-31T16:44:14;10.45;;;5.88;;
73296;SDS011;61524;50.938;11.396;2022-10-31T16:46:48;15.05;;;7.07;;
73296;SDS011;61524;50.938;11.396;2022-10-31T16:49:31;9.00;;;5.90;;
73296;SDS011;61524;50.938;11.396;2022-10-31T16:51:57;10.85;;;5.50;;
73296;SDS011;61524;50.938;11.396;2022-10-31T16:54:22;9.32;;;5.65;;
73296;SDS011;61524;50.938;11.396;2022-10-31T16:56:47;10.60;;;4.95;;
73296;SDS011;61524;50.938;11.396;2022-10-31T16:59:13;12.68;;;5.90;;
73296;SDS011;61524;50.938;11.396;2022-10-31T17:01:39;11.85;;;6.25;;
73296;SDS011;61524;50.938;11.396;2022-10-31T17:06:31;10.47;;;5.40;;
73296;SDS011;61524;50.938;11.396;2022-10-31T17:08:56;13.55;;;4.55;;
73296;SDS011;61524;50.938;11.396;2022-10-31T17:11:22;10.32;;;4.82;;
73296;SDS011;61524;50.938;11.396;2022-10-31T17:13:49;12.75;;;5.43;;
73296;SDS011;61524;50.938;11.396;2022-10-31T17:16:15;10.07;;;4.97;;
73296;SDS011;61524;50.938;11.396;2022-10-31T17:18:41;12.15;;;5.43;;
73296;SDS011;61524;50.938;11.396;2022-10-31T17:21:09;10.68;;;4.82;;
73296;SDS011;61524;50.938;11.396;2022-10-31T17:23:56;10.48;;;4.95;;
73296;SDS011;61524;50.938;11.396;2022-10-31T17:26:22;10.30;;;5.10;;
73296;SDS011;61524;50.938;11.396;2022-10-31T17:28:47;13.05;;;6.00;;
73296;SDS011;61524;50.938;11.396;2022-10-31T17:31:20;8.00;;;4.90;;
73296;SDS011;61524;50.938;11.396;2022-10-31T17:33:54;8.45;;;4.18;;
73296;SDS011;61524;50.938;11.396;2022-10-31T17:36:21;8.85;;;5.50;;
73296;SDS011;61524;50.938;11.396;2022-10-31T17:38:47;11.85;;;5.60;;
73296;SDS011;61524;50.938;11.396;2022-10-31T17:41:12;8.95;;;4.63;;
73296;SDS011;61524;50.938;11.396;2022-10-31T17:43:38;9.63;;;5.15;;
73296;SDS011;61524;50.938;11.396;2022-10-31T17:46:04;11.48;;;5.07;;